Time;durP1;ratioP1;P1;durP2;ratioP2;P2;SDS_P1;SDS_P2;PMS_P1;PMS_P2;Temp;Humidity;BMP_temperature;BMP_pressure;BME280_temperature;BME280_humidity;BME280_pressure;Samples;Min_cycle;Max_cycle;Signal;HPM_P1;HPM_P2
2021/10/04 00:02:14;;;;;;;4.32;3.92;;;;;;;21.42;50.30;95307.16;4935925;28;20028;-68
2021/10/04 00:04:39;;;;;;;3.33;3.10;;;;;;;21.61;49.74;95311.63;4941834;28;20068;-67
2021/10/04 00:07:05;;;;;;;3.50;3.22;;;;;;;22.04;48.85;95322.88;4950142;28;20497;-68
2021/10/04 00:09:30;;;;;;;3.60;3.17;;;;;;;22.25;48.32;95325.81;4952850;28;20182;-69
2021/10/04 00:11:55;;;;;;;3.95;3.63;;;;;;;22.19;47.83;95307.56;4953021;28;20078;-68
2021/10/04 00:14:22;;;;;;;3.33;3.10;;;;;;;22.13;47.98;95314.50;4954830;29;20031;-68
2021/10/04 00:16:50;;;;;;;3.05;2.72;;;;;;;21.84;48.36;95318.81;4934817;28;20036;-68
2021/10/04 00:19:16;;;;;;;3.42;2.95;;;;;;;22.40;47.54;95309.66;4940970;28;20078;-68
2021/10/04 00:21:41;;;;;;;3.83;2.70;;;;;;;22.54;46.65;95309.78;4946368;28;20035;-68
2021/10/04 00:24:06;;;;;;;3.33;2.85;;;;;;;22.30;46.94;95292.19;4952489;28;20041;-68
2021/10/04 00:26:32;;;;;;;2.95;2.75;;;;;;;22.33;47.13;95302.28;4952803;28;20020;-68
2021/10/04 00:28:58;;;;;;;3.15;2.95;;;;;;;22.02;47.66;95298.13;4954251;29;20028;-68
2021/10/04 00:31:23;;;;;;;3.15;2.95;;;;;;;22.14;47.16;95295.13;4938363;28;20052;-68
2021/10/04 00:33:48;;;;;;;2.90;2.70;;;;;;;22.19;47.28;95311.06;4938967;28;20063;-68
2021/10/04 00:36:14;;;;;;;3.33;2.70;;;;;;;22.57;46.83;95300.88;4944488;28;20054;-68
2021/10/04 00:38:39;;;;;;;3.15;2.85;;;;;;;22.69;46.07;95284.31;4952038;28;20382;-69
2021/10/04 00:41:06;;;;;;;3.40;2.78;;;;;;;22.81;45.82;95285.94;4954267;29;20053;-68
2021/10/04 00:43:31;;;;;;;3.38;3.13;;;;;;;22.96;45.49;95292.25;4952268;28;20665;-67
2021/10/04 00:45:58;;;;;;;3.28;2.97;;;;;;;22.87;45.50;95297.97;4942133;28;20040;-68
2021/10/04 00:48:24;;;;;;;2.78;2.55;;;;;;;22.36;46.40;95289.88;4933078;28;20044;-68
2021/10/04 00:50:49;;;;;;;3.00;2.75;;;;;;;22.44;46.23;95296.94;4940572;28;20059;-68
2021/10/04 00:53:15;;;;;;;2.78;2.47;;;;;;;22.34;46.48;95303.81;4934857;29;20020;-68
2021/10/04 00:55:40;;;;;;;2.83;2.63;;;;;;;22.35;46.65;95304.59;4933144;28;20036;-68
2021/10/04 00:58:06;;;;;;;3.20;2.90;;;;;;;22.30;46.77;95294.88;4933121;28;20110;-68
2021/10/04 01:00:33;;;;;;;3.42;3.20;;;;;;;22.17;47.18;95309.88;4932484;28;20605;-68
2021/10/04 01:02:59;;;;;;;2.72;2.53;;;;;;;21.93;47.90;95294.94;4931727;28;20043;-68
2021/10/04 01:05:25;;;;;;;2.80;2.60;;;;;;;21.65;48.37;95307.03;4940931;28;20028;-68
2021/10/04 01:07:50;;;;;;;2.78;2.58;;;;;;;21.95;47.57;95303.44;4935380;29;20016;-68
2021/10/04 01:10:17;;;;;;;4.15;2.90;;;;;;;21.92;47.52;95279.84;4932974;28;20046;-73
2021/10/04 01:12:46;;;;;;;3.67;2.40;;;;;;;21.67;48.47;95291.19;4932968;28;20052;-69
2021/10/04 01:15:14;;;;;;;2.80;2.50;;;;;;;22.06;47.39;95286.16;4933104;28;20406;-68
2021/10/04 01:17:40;;;;;;;3.88;2.65;;;;;;;22.19;47.25;95292.09;4932733;28;20028;-68
2021/10/04 01:20:17;;;;;;;3.10;2.80;;;;;;;22.36;46.68;95293.38;4941884;29;20023;-68
2021/10/04 01:22:43;;;;;;;3.15;2.88;;;;;;;22.59;46.29;95295.88;4951585;28;20123;-69
2021/10/04 01:25:11;;;;;;;2.70;2.50;;;;;;;22.60;45.94;95286.59;4951581;28;20039;-69
2021/10/04 01:27:36;;;;;;;4.35;3.10;;;;;;;22.62;46.13;95276.13;4951736;28;20027;-67
2021/10/04 01:30:04;;;;;;;2.80;2.60;;;;;;;22.64;45.90;95276.53;4980868;28;20505;-68
2021/10/04 01:32:29;;;;;;;3.42;2.60;;;;;;;22.79;45.93;95296.41;4932242;28;20067;-68
2021/10/04 01:34:56;;;;;;;4.88;3.00;;;;;;;22.57;45.69;95280.00;4942083;29;20143;-67
2021/10/04 01:37:23;;;;;;;3.13;2.83;;;;;;;22.66;45.96;95276.16;4950654;28;20040;-68
2021/10/04 01:39:49;;;;;;;3.25;2.95;;;;;;;22.66;45.85;95271.50;4951422;28;20043;-68
2021/10/04 01:42:15;;;;;;;3.42;2.67;;;;;;;22.78;45.59;95289.44;4951686;28;20039;-67
2021/10/04 01:44:40;;;;;;;3.20;3.00;;;;;;;22.66;45.89;95268.81;4951343;28;20027;-68
2021/10/04 01:47:05;;;;;;;2.65;2.42;;;;;;;22.62;45.77;95292.41;4935937;29;20571;-68
2021/10/04 01:49:31;;;;;;;3.13;2.60;;;;;;;22.64;45.70;95294.75;4943370;28;20039;-68
2021/10/04 01:51:56;;;;;;;3.40;3.13;;;;;;;22.72;45.63;95293.63;4951585;28;20058;-68
2021/10/04 01:54:22;;;;;;;3.17;2.70;;;;;;;22.74;45.49;95294.81;4951080;28;20051;-68
2021/10/04 01:56:48;;;;;;;3.30;3.05;;;;;;;22.83;45.70;95308.06;4951205;28;20621;-68
2021/10/04 01:59:13;;;;;;;3.60;3.20;;;;;;;22.54;46.06;95298.94;4952496;29;20118;-68
2021/10/04 02:01:39;;;;;;;2.90;2.63;;;;;;;22.31;46.71;95291.00;4937601;28;20317;-68
2021/10/04 02:04:04;;;;;;;3.15;2.80;;;;;;;22.56;45.86;95293.91;4939482;28;20039;-68
2021/10/04 02:06:30;;;;;;;4.18;2.92;;;;;;;22.63;46.30;95299.41;4942884;28;20090;-69
2021/10/04 02:08:55;;;;;;;3.20;2.97;;;;;;;22.84;45.86;95304.19;4950391;28;20039;-68
2021/10/04 02:11:21;;;;;;;2.70;2.50;;;;;;;22.57;46.09;95300.88;4952874;29;20528;-68
2021/10/04 02:13:46;;;;;;;3.53;3.22;;;;;;;22.81;45.76;95302.97;4950410;28;20031;-68
2021/10/04 02:16:12;;;;;;;3.28;2.97;;;;;;;22.94;45.80;95297.28;4940534;28;20040;-68
2021/10/04 02:18:38;;;;;;;3.65;3.35;;;;;;;22.93;45.54;95296.50;4931014;28;20027;-67
2021/10/04 02:21:03;;;;;;;3.42;3.17;;;;;;;23.00;45.27;95290.34;4938917;28;20510;-68
2021/10/04 02:23:28;;;;;;;4.10;3.08;;;;;;;23.05;45.37;95293.47;4950066;28;20027;-68
2021/10/04 02:25:54;;;;;;;3.88;3.58;;;;;;;23.04;45.43;95291.91;4951341;28;20020;-68
2021/10/04 02:28:20;;;;;;;4.25;2.92;;;;;;;23.05;45.11;95290.75;4950486;28;20067;-68
2021/10/04 02:30:48;;;;;;;3.70;3.40;;;;;;;22.73;45.67;95281.66;4943576;28;20135;-68
2021/10/04 02:33:13;;;;;;;4.22;3.83;;;;;;;22.76;45.63;95276.22;4930954;28;20028;-68
2021/10/04 02:35:39;;;;;;;3.85;3.45;;;;;;;22.71;46.07;95282.00;4937863;28;20707;-68
2021/10/04 02:38:05;;;;;;;3.38;3.08;;;;;;;22.32;46.93;95281.75;4963150;28;20024;-68
2021/10/04 02:40:31;;;;;;;3.58;3.28;;;;;;;22.22;47.05;95296.00;4928643;28;20115;-68
2021/10/04 02:42:57;;;;;;;3.60;3.30;;;;;;;22.10;46.79;95288.88;4930991;28;20150;-68
2021/10/04 02:45:24;;;;;;;3.25;2.97;;;;;;;22.24;46.79;95291.75;4931051;28;20070;-68
2021/10/04 02:47:52;;;;;;;2.80;2.60;;;;;;;22.11;45.98;95287.78;4929621;29;20102;-70
2021/10/04 02:50:20;;;;;;;2.65;2.17;;;;;;;21.17;47.44;95298.72;4939309;28;20027;-68
2021/10/04 02:52:45;;;;;;;2.35;2.15;;;;;;;21.12;47.14;95285.50;4942883;28;20043;-68
2021/10/04 02:55:11;;;;;;;2.45;2.25;;;;;;;20.39;48.93;95289.50;4950291;28;20042;-69
2021/10/04 02:57:37;;;;;;;2.35;2.15;;;;;;;20.73;48.18;95290.41;4950036;28;20043;-68
2021/10/04 03:00:05;;;;;;;1.98;1.88;;;;;;;20.19;49.38;95278.78;4948478;28;20032;-68
2021/10/04 03:02:31;;;;;;;1.80;1.70;;;;;;;19.77;50.11;95284.25;4931941;28;20027;-68
2021/10/04 03:04:57;;;;;;;2.85;2.08;;;;;;;20.13;49.79;95293.72;4939640;29;20034;-68
2021/10/04 03:07:22;;;;;;;1.80;1.70;;;;;;;20.96;47.56;95282.22;4942186;28;20039;-68
2021/10/04 03:09:47;;;;;;;1.85;1.75;;;;;;;20.80;47.48;95276.22;4949706;28;20424;-68
2021/10/04 03:12:13;;;;;;;1.92;1.80;;;;;;;21.12;46.49;95266.56;4949818;28;20085;-68
2021/10/04 03:14:38;;;;;;;2.03;1.83;;;;;;;21.10;46.56;95277.00;4949782;28;20079;-68
2021/10/04 03:17:04;;;;;;;1.80;1.70;;;;;;;20.66;47.13;95285.69;4937769;29;20547;-68
2021/10/04 03:19:29;;;;;;;2.10;1.65;;;;;;;20.91;46.87;95277.13;4932264;28;20038;-68
2021/10/04 03:21:55;;;;;;;2.58;1.67;;;;;;;20.75;46.82;95267.28;4941685;28;20039;-68
2021/10/04 03:24:21;;;;;;;2.65;1.60;;;;;;;20.85;46.63;95281.31;4949456;28;20058;-68
2021/10/04 03:26:47;;;;;;;1.50;1.40;;;;;;;20.64;47.09;95293.38;4949117;28;20549;-68
2021/10/04 03:29:12;;;;;;;1.80;1.70;;;;;;;20.73;47.26;95293.91;4951185;29;20031;-68
2021/10/04 03:31:38;;;;;;;2.63;1.50;;;;;;;20.13;47.19;95253.22;4939636;28;20043;-68
2021/10/04 03:34:04;;;;;;;1.55;1.45;;;;;;;19.77;49.08;95294.25;4930009;28;20091;-68
2021/10/04 03:36:31;;;;;;;1.50;1.40;;;;;;;20.33;48.09;95289.03;4930440;28;20075;-69
2021/10/04 03:38:56;;;;;;;1.60;1.50;;;;;;;21.11;46.22;95283.97;4929947;28;20035;-68
2021/10/04 03:41:23;;;;;;;1.65;1.55;;;;;;;20.72;46.85;95292.31;4963123;28;20024;-68
2021/10/04 03:43:48;;;;;;;1.77;1.67;;;;;;;21.15;45.99;95294.84;4930101;28;20056;-68
2021/10/04 03:46:13;;;;;;;1.50;1.40;;;;;;;21.54;45.13;95295.28;4929915;28;20066;-68
2021/10/04 03:48:39;;;;;;;1.73;1.60;;;;;;;21.20;45.44;95291.81;4928221;28;20046;-68
2021/10/04 03:51:04;;;;;;;1.58;1.48;;;;;;;20.27;47.58;95295.88;4938226;28;20446;-68
2021/10/04 03:53:29;;;;;;;2.13;1.85;;;;;;;20.26;47.78;95294.31;4928581;28;20115;-68
2021/10/04 03:55:55;;;;;;;1.92;1.40;;;;;;;20.60;46.77;95284.44;4932071;29;20031;-68
2021/10/04 03:58:20;;;;;;;1.80;1.63;;;;;;;19.33;49.88;95284.56;4930314;28;20109;-68
2021/10/04 04:00:46;;;;;;;1.60;1.50;;;;;;;19.94;48.74;95297.25;4929511;28;20095;-68
2021/10/04 04:03:11;;;;;;;1.55;1.45;;;;;;;20.64;46.80;95266.34;4929549;28;20054;-69
2021/10/04 04:05:36;;;;;;;1.55;1.45;;;;;;;20.53;46.94;95300.56;4937963;28;20047;-68
2021/10/04 04:08:02;;;;;;;3.47;1.52;;;;;;;19.80;48.36;95298.94;4947525;29;20036;-68
2021/10/04 04:10:28;;;;;;;1.60;1.50;;;;;;;19.86;48.65;95287.50;4948885;28;20039;-68
2021/10/04 04:12:53;;;;;;;1.63;1.38;;;;;;;19.50;49.21;95294.13;4979828;28;20078;-68
2021/10/04 04:15:19;;;;;;;1.70;1.58;;;;;;;19.88;48.85;95293.31;4980190;28;20051;-68
2021/10/04 04:17:44;;;;;;;2.00;1.73;;;;;;;20.25;48.00;95300.84;4931979;28;20114;-68
2021/10/04 04:20:11;;;;;;;1.45;1.35;;;;;;;20.99;45.86;95303.13;4939192;29;20024;-70
2021/10/04 04:22:36;;;;;;;1.45;1.35;;;;;;;19.91;47.63;95299.88;4941890;28;20065;-68
2021/10/04 04:25:03;;;;;;;1.50;1.38;;;;;;;18.99;50.58;95309.66;4947936;28;20539;-68
2021/10/04 04:27:28;;;;;;;1.30;1.20;;;;;;;19.05;50.08;95324.44;4949001;28;20130;-68
2021/10/04 04:29:54;;;;;;;2.03;1.40;;;;;;;18.83;51.14;95323.97;4948807;28;20464;-68
2021/10/04 04:32:19;;;;;;;2.15;1.35;;;;;;;19.11;50.54;95323.03;4937747;29;20091;-70
2021/10/04 04:34:45;;;;;;;1.80;1.70;;;;;;;19.84;48.63;95305.94;4935025;28;20172;-68
2021/10/04 04:37:10;;;;;;;1.30;1.20;;;;;;;19.61;49.20;95303.25;4941362;28;20027;-68
2021/10/04 04:39:37;;;;;;;2.22;1.40;;;;;;;19.70;48.88;95311.09;4952202;28;20043;-68
2021/10/04 04:42:04;;;;;;;2.38;1.50;;;;;;;19.43;49.37;95312.88;4952343;28;20043;-68
2021/10/04 04:44:29;;;;;;;1.58;1.48;;;;;;;19.59;49.16;95316.28;4952538;28;20509;-68
2021/10/04 04:46:55;;;;;;;1.15;1.05;;;;;;;19.98;47.94;95321.63;4944749;29;20055;-68
2021/10/04 04:49:25;;;;;;;1.70;1.60;;;;;;;20.25;47.75;95330.56;4933510;29;20040;-68
2021/10/04 04:51:51;;;;;;;2.47;1.40;;;;;;;20.29;47.44;95320.59;4944319;28;20035;-68
2021/10/04 04:54:17;;;;;;;1.40;1.30;;;;;;;20.15;47.46;95315.75;4951989;28;20035;-68
2021/10/04 04:56:42;;;;;;;1.30;1.20;;;;;;;19.22;49.64;95313.22;4952106;28;20126;-68
2021/10/04 04:59:07;;;;;;;1.58;1.23;;;;;;;19.36;49.19;95296.56;4953556;28;20037;-68
2021/10/04 05:01:33;;;;;;;2.50;1.40;;;;;;;19.66;48.64;95311.03;4945985;28;20044;-68
2021/10/04 05:03:58;;;;;;;1.80;1.35;;;;;;;20.30;47.08;95315.97;4931106;29;20757;-68
2021/10/04 05:06:23;;;;;;;1.85;1.25;;;;;;;19.66;48.67;95311.03;4932804;28;20470;-68
2021/10/04 05:08:49;;;;;;;1.48;1.33;;;;;;;20.14;47.47;95302.59;4932493;28;20059;-68
2021/10/04 05:11:14;;;;;;;1.95;1.02;;;;;;;18.98;50.08;95310.78;4934990;29;20740;-68
2021/10/04 05:13:40;;;;;;;2.42;1.40;;;;;;;19.67;49.02;95320.69;4950337;28;20481;-68
2021/10/04 05:16:05;;;;;;;1.98;1.77;;;;;;;19.16;49.95;95314.66;4949932;28;20063;-68
2021/10/04 05:18:30;;;;;;;2.72;1.38;;;;;;;20.08;48.13;95317.56;4932276;28;20074;-68
2021/10/04 05:20:56;;;;;;;1.60;1.50;;;;;;;18.94;50.96;95332.31;4932087;28;20082;-68
2021/10/04 05:23:21;;;;;;;1.40;1.30;;;;;;;19.40;49.74;95324.38;4952069;29;20039;-68
2021/10/04 05:25:46;;;;;;;1.45;1.35;;;;;;;19.68;48.84;95324.16;4951675;28;20535;-69
2021/10/04 05:28:12;;;;;;;1.50;1.40;;;;;;;19.43;49.52;95313.66;4951357;28;20039;-69
2021/10/04 05:30:38;;;;;;;2.00;1.38;;;;;;;19.80;48.80;95325.91;4951318;28;20047;-69
2021/10/04 05:33:03;;;;;;;4.43;1.55;;;;;;;19.81;48.59;95316.69;4932870;28;20036;-71
2021/10/04 05:35:29;;;;;;;2.20;1.60;;;;;;;19.77;48.49;95340.16;4931860;28;20022;-71
2021/10/04 05:37:54;;;;;;;1.75;1.40;;;;;;;20.19;48.00;95321.97;4934951;29;20043;-71
2021/10/04 05:40:20;;;;;;;2.53;1.63;;;;;;;20.01;47.95;95345.19;4931901;28;20040;-69
2021/10/04 05:42:46;;;;;;;1.55;1.45;;;;;;;19.54;49.31;95354.31;4932258;28;20032;-67
2021/10/04 05:45:13;;;;;;;2.72;1.38;;;;;;;18.90;50.92;95351.09;4932135;28;20034;-67
2021/10/04 05:47:39;;;;;;;2.33;1.60;;;;;;;18.38;52.74;95352.19;4931803;28;20036;-69
2021/10/04 05:50:05;;;;;;;2.72;1.42;;;;;;;19.28;50.64;95359.56;4941064;28;20027;-73
2021/10/04 05:52:31;;;;;;;4.70;1.52;;;;;;;19.22;50.97;95349.06;4938470;28;20066;-67
2021/10/04 05:54:56;;;;;;;1.98;1.48;;;;;;;19.98;48.83;95365.59;4928322;28;20482;-66
2021/10/04 05:57:22;;;;;;;4.78;1.73;;;;;;;19.67;49.29;95355.00;4931831;28;20040;-66
2021/10/04 05:59:48;;;;;;;3.13;1.40;;;;;;;19.60;49.41;95341.34;4931852;29;20042;-65
2021/10/04 06:02:13;;;;;;;3.50;1.67;;;;;;;19.98;48.38;95343.22;4934013;29;20670;-76
2021/10/04 06:04:39;;;;;;;3.25;1.50;;;;;;;19.64;49.72;95355.69;4932375;28;20040;-69
2021/10/04 06:07:04;;;;;;;3.50;1.40;;;;;;;20.20;48.17;95350.56;4940574;28;20028;-76
2021/10/04 06:09:30;;;;;;;3.10;1.48;;;;;;;20.62;47.30;95341.59;4931498;28;20417;-75
2021/10/04 06:11:55;;;;;;;2.05;1.80;;;;;;;20.35;47.76;95361.59;4932198;28;20028;-79
2021/10/04 06:14:21;;;;;;;2.08;1.25;;;;;;;19.51;49.57;95365.84;4933064;29;20020;-70
2021/10/04 06:16:46;;;;;;;3.47;1.70;;;;;;;19.41;50.22;95366.41;4962960;28;20130;-72
2021/10/04 06:19:12;;;;;;;1.98;1.42;;;;;;;19.96;49.21;95372.47;4931292;28;20075;-72
2021/10/04 06:21:37;;;;;;;2.58;1.70;;;;;;;19.06;51.47;95388.00;4940046;28;20036;-79
2021/10/04 06:24:03;;;;;;;4.60;1.80;;;;;;;19.00;51.55;95365.94;4962862;28;20522;-74
2021/10/04 06:26:28;;;;;;;3.08;1.70;;;;;;;19.07;51.27;95384.16;4931755;28;20020;-71
2021/10/04 06:28:54;;;;;;;4.13;1.80;;;;;;;19.68;51.50;95378.91;4933236;29;20485;-68
2021/10/04 06:31:19;;;;;;;3.35;1.90;;;;;;;19.69;50.68;95377.78;4931256;28;20103;-70
2021/10/04 06:33:44;;;;;;;3.00;1.83;;;;;;;20.76;48.02;95371.56;4931186;28;20115;-66
2021/10/04 06:36:10;;;;;;;3.35;1.83;;;;;;;20.88;46.99;95375.19;4940464;28;20477;-75
2021/10/04 06:38:35;;;;;;;2.72;1.52;;;;;;;20.59;47.38;95382.88;4939906;28;20023;-76
2021/10/04 06:41:01;;;;;;;3.40;1.58;;;;;;;20.72;46.92;95383.44;4966309;28;20379;-78
2021/10/04 06:43:26;;;;;;;3.38;1.70;;;;;;;21.59;45.46;95394.34;4931344;28;20398;-77
2021/10/04 06:45:52;;;;;;;2.17;1.70;;;;;;;21.59;45.11;95383.50;4932246;28;20090;-77
2021/10/04 06:48:27;;;;;;;5.35;2.03;;;;;;;20.03;48.50;95394.22;4932047;28;20075;-76
2021/10/04 06:50:53;;;;;;;2.53;1.63;;;;;;;19.41;50.05;95404.19;4933075;28;20052;-78
2021/10/04 06:53:19;;;;;;;2.78;1.50;;;;;;;20.51;47.31;95398.19;4950483;29;20710;-74
2021/10/04 06:55:45;;;;;;;2.33;1.63;;;;;;;19.41;50.47;95393.38;4950972;28;20047;-75
2021/10/04 06:58:12;;;;;;;3.20;1.70;;;;;;;19.77;49.19;95394.91;4949645;28;20106;-74
2021/10/04 07:00:37;;;;;;;2.13;1.70;;;;;;;20.11;48.86;95401.31;4950071;28;20032;-75
2021/10/04 07:03:03;;;;;;;3.95;2.08;;;;;;;21.01;47.01;95404.38;4936656;28;20036;-76
2021/10/04 07:05:29;;;;;;;1.60;1.50;;;;;;;20.13;48.75;95412.56;4934504;28;20564;-75
2021/10/04 07:07:56;;;;;;;3.35;1.60;;;;;;;19.29;51.17;95417.75;4945375;29;20359;-76
2021/10/04 07:10:22;;;;;;;2.25;1.70;;;;;;;20.11;48.97;95417.50;4931153;28;20038;-74
2021/10/04 07:12:48;;;;;;;1.92;1.55;;;;;;;20.07;49.64;95405.88;4930069;28;20047;-72
2021/10/04 07:15:13;;;;;;;1.73;1.58;;;;;;;20.88;47.56;95415.75;4930404;28;20398;-72
2021/10/04 07:17:39;;;;;;;3.33;1.70;;;;;;;20.38;48.55;95434.59;4930131;28;20045;-72
2021/10/04 07:20:05;;;;;;;3.17;1.65;;;;;;;19.76;49.95;95425.75;4932390;29;20031;-71
2021/10/04 07:22:31;;;;;;;2.65;1.90;;;;;;;19.51;50.69;95416.31;4936334;28;20528;-72
2021/10/04 07:24:56;;;;;;;1.52;1.42;;;;;;;19.97;49.71;95430.78;4930259;29;20031;-72
2021/10/04 07:27:21;;;;;;;2.17;1.60;;;;;;;20.95;47.63;95399.66;4930844;28;20040;-73
2021/10/04 07:29:47;;;;;;;1.48;1.20;;;;;;;20.11;49.28;95432.94;4930681;28;20502;-71
2021/10/04 07:32:12;;;;;;;1.65;1.55;;;;;;;20.55;48.61;95432.59;4932361;29;20398;-75
2021/10/04 07:34:38;;;;;;;1.45;1.35;;;;;;;19.46;51.17;95425.47;4930269;28;20040;-72
2021/10/04 07:37:03;;;;;;;1.73;1.45;;;;;;;20.88;47.56;95426.56;4938471;28;20032;-72
2021/10/04 07:39:29;;;;;;;1.75;1.48;;;;;;;21.74;45.55;95433.97;4930162;28;20044;-72
2021/10/04 07:41:57;;;;;;;1.60;1.50;;;;;;;21.94;45.25;95426.47;4930751;28;20134;-71
2021/10/04 07:44:23;;;;;;;2.42;1.77;;;;;;;20.10;49.14;95444.88;4932327;29;20023;-73
2021/10/04 07:46:49;;;;;;;1.63;1.52;;;;;;;19.44;51.15;95458.19;4930239;28;20095;-71
2021/10/04 07:49:15;;;;;;;2.03;1.77;;;;;;;19.17;51.88;95459.91;4929830;28;20039;-72
2021/10/04 07:51:41;;;;;;;1.90;1.70;;;;;;;20.65;48.61;95451.69;4938168;28;20142;-71
2021/10/04 07:54:06;;;;;;;2.55;1.80;;;;;;;20.40;48.45;95453.16;4930205;28;20064;-72
2021/10/04 07:56:32;;;;;;;1.90;1.80;;;;;;;20.07;49.58;95459.91;4928016;28;20493;-72
2021/10/04 07:58:57;;;;;;;2.35;1.50;;;;;;;19.63;51.11;95472.88;4932326;29;20028;-71
2021/10/04 08:01:23;;;;;;;2.35;1.67;;;;;;;20.08;49.48;95472.25;4960987;28;20040;-72
2021/10/04 08:03:48;;;;;;;3.20;1.75;;;;;;;19.94;50.32;95472.75;4929869;28;20042;-72
2021/10/04 08:06:14;;;;;;;1.70;1.60;;;;;;;20.93;47.52;95478.41;4931330;28;20379;-72
2021/10/04 08:08:40;;;;;;;2.00;1.48;;;;;;;19.65;50.56;95492.97;4936337;28;20027;-71
2021/10/04 08:11:05;;;;;;;2.95;1.80;;;;;;;20.68;48.00;95496.16;4930866;29;20039;-72
2021/10/04 08:13:31;;;;;;;1.92;1.58;;;;;;;21.06;47.31;95486.34;4932333;28;20048;-72
2021/10/04 08:15:57;;;;;;;2.50;1.65;;;;;;;19.96;49.39;95478.59;4933928;28;20031;-72
2021/10/04 08:18:22;;;;;;;2.80;1.30;;;;;;;19.52;50.92;95490.72;4931957;29;20508;-71
2021/10/04 08:20:47;;;;;;;2.65;1.55;;;;;;;20.17;49.73;95485.53;4932988;28;20513;-71
2021/10/04 08:23:13;;;;;;;1.50;1.40;;;;;;;19.22;51.56;95489.28;4943296;29;20023;-72
2021/10/04 08:25:39;;;;;;;2.47;1.42;;;;;;;18.40;54.14;95492.66;4933846;28;20032;-71
2021/10/04 08:28:05;;;;;;;1.55;1.45;;;;;;;19.53;51.18;95501.16;4933505;28;20044;-71
2021/10/04 08:30:32;;;;;;;2.63;1.42;;;;;;;19.18;52.60;95491.13;4933095;28;20039;-71
2021/10/04 08:32:58;;;;;;;3.28;1.42;;;;;;;19.12;53.36;95497.13;4933167;28;20043;-71
2021/10/04 08:35:23;;;;;;;4.63;1.38;;;;;;;19.08;53.19;95497.06;4938348;29;20028;-71
2021/10/04 08:37:49;;;;;;;2.92;1.60;;;;;;;18.65;53.79;95501.38;4977792;28;20039;-72
2021/10/04 08:40:15;;;;;;;2.45;1.65;;;;;;;19.16;53.11;95509.56;4963853;28;20126;-72
2021/10/04 08:42:43;;;;;;;1.95;1.60;;;;;;;19.17;53.12;95511.13;4933093;28;20151;-71
2021/10/04 08:45:09;;;;;;;1.85;1.40;;;;;;;19.74;51.51;95517.84;4933386;28;20490;-71
2021/10/04 08:47:40;;;;;;;3.25;1.80;;;;;;;20.30;50.02;95515.88;4964056;28;20043;-76
2021/10/04 08:50:13;;;;;;;4.25;1.75;;;;;;;19.41;52.04;95512.06;4965988;28;20028;-73
2021/10/04 08:52:39;;;;;;;3.38;1.55;;;;;;;19.90;50.97;95514.31;4940765;28;20105;-73
2021/10/04 08:55:05;;;;;;;1.50;1.40;;;;;;;18.06;55.54;95523.63;4933624;28;20046;-73
2021/10/04 08:57:30;;;;;;;3.17;1.60;;;;;;;18.47;54.58;95518.19;4933279;28;20044;-72
2021/10/04 08:59:56;;;;;;;5.45;1.85;;;;;;;18.88;53.72;95525.84;4932945;28;20046;-72
2021/10/04 09:02:31;;;;;;;1.85;1.50;;;;;;;19.30;52.18;95513.75;4934873;29;20032;-72
2021/10/04 09:05:08;;;;;;;1.77;1.67;;;;;;;18.30;55.29;95524.69;4941289;28;20055;-72
2021/10/04 09:07:48;;;;;;;3.25;2.15;;;;;;;18.52;54.55;95526.03;4932408;29;20122;-73
2021/10/04 09:10:20;;;;;;;1.50;1.40;;;;;;;18.68;53.66;95527.66;4931458;28;20104;-72
2021/10/04 09:12:56;;;;;;;;;;;;;;;19.42;51.72;95537.91;4931721;28;20040;-72
2021/10/04 09:15:26;;;;;;;2.03;1.83;;;;;;;19.57;51.84;95533.63;4933054;28;19974;-73
2021/10/04 09:17:52;;;;;;;3.75;1.70;;;;;;;18.64;53.94;95545.63;4963110;28;20047;-70
2021/10/04 09:20:19;;;;;;;3.83;1.70;;;;;;;20.13;49.92;95527.91;4967020;28;20126;-72
2021/10/04 09:22:44;;;;;;;2.35;1.63;;;;;;;18.73;53.69;95547.38;4942493;28;20568;-73
2021/10/04 09:25:10;;;;;;;3.30;1.60;;;;;;;20.00;50.13;95549.63;4950994;28;20046;-70
2021/10/04 09:27:37;;;;;;;3.47;1.77;;;;;;;19.02;52.40;95556.97;4951918;28;20043;-70
2021/10/04 09:30:12;;;;;;;1.67;1.58;;;;;;;18.67;53.42;95566.47;4951449;28;20035;-69
2021/10/04 09:32:40;;;;;;;2.50;1.50;;;;;;;18.92;52.78;95548.28;4946633;28;20023;-69
2021/10/04 09:35:27;;;;;;;4.93;1.63;;;;;;;18.59;53.31;95562.03;4934490;29;20046;-70
2021/10/04 09:37:58;;;;;;;5.50;1.70;;;;;;;19.11;52.22;95576.47;4944175;28;20031;-69
2021/10/04 09:40:57;;;;;;;1.80;1.63;;;;;;;19.09;51.77;95578.72;4951169;28;20046;-70
2021/10/04 09:43:28;;;;;;;1.70;1.60;;;;;;;19.59;50.40;95551.03;4950829;28;20039;-72
2021/10/04 09:46:02;;;;;;;1.80;1.70;;;;;;;18.93;52.03;95570.63;4950152;28;20113;-70
2021/10/04 09:48:28;;;;;;;1.75;1.48;;;;;;;20.02;49.52;95573.59;4938984;28;20058;-71
2021/10/04 09:50:54;;;;;;;1.58;1.48;;;;;;;19.79;49.52;95575.38;4931838;28;20646;-69
2021/10/04 09:53:19;;;;;;;2.53;1.95;;;;;;;19.67;50.71;95582.47;4941741;29;20028;-69
2021/10/04 09:55:47;;;;;;;3.13;1.65;;;;;;;19.84;50.11;95577.81;4932147;29;20075;-69
2021/10/04 09:58:30;;;;;;;2.35;1.70;;;;;;;19.23;51.54;95571.75;4932263;28;20123;-69
2021/10/04 10:00:57;;;;;;;1.35;1.15;;;;;;;18.42;53.51;95583.88;4932008;28;20063;-69
2021/10/04 10:03:37;;;;;;;1.55;1.45;;;;;;;18.60;53.45;95587.84;4931386;28;20122;-69
2021/10/04 10:06:03;;;;;;;1.33;1.23;;;;;;;19.82;50.61;95577.41;4931968;28;20055;-69
2021/10/04 10:08:30;;;;;;;1.83;1.17;;;;;;;20.55;48.16;95571.19;4941365;28;20373;-69
2021/10/04 10:10:59;;;;;;;1.75;1.20;;;;;;;19.51;50.61;95578.19;4952713;29;20074;-68
2021/10/04 10:13:27;;;;;;;1.80;1.40;;;;;;;20.18;48.85;95579.72;4950644;28;20499;-69
2021/10/04 10:15:59;;;;;;;2.25;1.58;;;;;;;19.99;48.95;95585.88;4951216;28;20039;-69
2021/10/04 10:18:28;;;;;;;1.55;1.30;;;;;;;20.19;48.87;95575.88;4941380;28;20127;-68
2021/10/04 10:20:59;;;;;;;1.88;1.50;;;;;;;20.02;49.19;95576.28;4930930;28;20040;-70
2021/10/04 10:23:43;;;;;;;1.63;1.40;;;;;;;20.70;47.78;95585.78;4939587;29;20032;-70
2021/10/04 10:26:32;;;;;;;1.98;1.42;;;;;;;19.71;50.00;95591.44;4962746;28;20043;-70
2021/10/04 10:29:13;;;;;;;1.90;1.45;;;;;;;19.42;51.03;95597.25;4931661;29;20051;-69
2021/10/04 10:31:47;;;;;;;2.63;1.48;;;;;;;19.78;50.50;95584.63;4931572;28;20051;-69
2021/10/04 10:34:36;;;;;;;2.13;1.40;;;;;;;19.80;50.06;95582.34;4931653;28;20051;-74
2021/10/04 10:37:18;;;;;;;2.33;1.55;;;;;;;19.29;51.52;95593.06;4970187;28;20374;-77
2021/10/04 10:39:53;;;;;;;1.83;1.70;;;;;;;18.76;53.09;95576.34;4969196;28;20438;-81
2021/10/04 10:42:23;;;;;;;1.52;1.42;;;;;;;18.83;53.20;95582.69;4933180;28;20028;-79
2021/10/04 10:44:54;;;;;;;1.60;1.50;;;;;;;19.72;50.97;95590.28;4931222;28;20032;-76
2021/10/04 10:47:38;;;;;;;4.68;1.65;;;;;;;18.56;54.10;95597.72;4934904;29;20028;-82
2021/10/04 10:50:07;;;;;;;1.75;1.30;;;;;;;19.49;51.68;95595.50;4928224;29;20043;-71
2021/10/04 10:52:36;;;;;;;6.47;2.20;;;;;;;18.92;52.93;95602.19;4931788;28;20036;-71
2021/10/04 10:55:22;;;;;;;5.10;1.92;;;;;;;19.11;52.56;95598.03;4947191;28;20054;-72
2021/10/04 10:57:57;;;;;;;3.70;1.40;;;;;;;18.43;54.00;95599.72;4950693;28;20039;-77
2021/10/04 11:00:24;;;;;;;3.05;1.40;;;;;;;18.99;52.29;95604.31;4978882;28;20039;-74
2021/10/04 11:03:15;;;;;;;3.83;1.42;;;;;;;19.10;52.06;95607.28;4946662;28;20047;-74
2021/10/04 11:05:43;;;;;;;1.38;1.27;;;;;;;18.44;53.54;95608.56;4955577;28;20027;-74
2021/10/04 11:08:23;;;;;;;1.90;1.33;;;;;;;18.99;52.17;95607.00;4942390;29;20078;-72
2021/10/04 11:10:48;;;;;;;2.58;1.30;;;;;;;19.74;50.36;95606.13;4950709;28;20039;-72
2021/10/04 11:13:19;;;;;;;1.33;1.23;;;;;;;19.45;51.51;95613.53;4980310;28;20055;-68
2021/10/04 11:15:45;;;;;;;1.55;1.45;;;;;;;18.84;52.48;95619.31;4981928;28;20039;-73
2021/10/04 11:18:11;;;;;;;2.72;1.30;;;;;;;18.59;52.73;95620.53;4941369;28;20091;-74
2021/10/04 11:20:37;;;;;;;1.30;1.20;;;;;;;20.25;49.40;95617.66;4930270;29;20066;-68
2021/10/04 11:23:09;;;;;;;1.23;1.20;;;;;;;18.78;52.80;95606.41;4939971;29;20599;-69
2021/10/04 11:25:53;;;;;;;1.55;1.10;;;;;;;19.93;50.22;95603.47;4930498;28;20040;-68
2021/10/04 11:28:34;;;;;;;1.35;1.10;;;;;;;18.58;52.95;95598.19;4930844;28;20039;-68
2021/10/04 11:31:05;;;;;;;1.17;1.00;;;;;;;19.04;52.13;95622.13;4961273;28;20040;-68
2021/10/04 11:33:39;;;;;;;1.08;0.95;;;;;;;18.82;52.75;95610.00;4929988;28;20151;-68
2021/10/04 11:36:10;;;;;;;1.73;1.20;;;;;;;18.50;53.14;95623.34;4930513;28;20031;-68